createdAt,value
2023-04-27T00:01:20.443Z,3.36
2023-04-27T00:03:47.346Z,3.32
2023-04-27T00:06:17.362Z,3.31
2023-04-27T00:08:43.857Z,3.33
2023-04-27T00:11:10.234Z,3.31
2023-04-27T00:13:39.768Z,3.18
2023-04-27T00:16:09.049Z,3.19
2023-04-27T00:18:35.538Z,3.13
2023-04-27T00:21:06.586Z,3.07
2023-04-27T00:23:32.896Z,3.15
2023-04-27T00:25:59.282Z,3.14
2023-04-27T00:28:29.835Z,3.13
2023-04-27T00:30:58.902Z,3.13
2023-04-27T00:33:29.591Z,3.02
2023-04-27T00:36:00.858Z,3.00
2023-04-27T00:38:30.909Z,3.00
2023-04-27T00:41:04.671Z,2.95
2023-04-27T00:43:31.595Z,2.95
2023-04-27T00:45:59.343Z,2.91
2023-04-27T00:48:29.060Z,2.87
2023-04-27T00:50:58.386Z,2.89
2023-04-27T00:53:25.371Z,2.88
2023-04-27T00:55:58.011Z,2.84
2023-04-27T00:58:27.854Z,2.80
2023-04-27T01:00:54.332Z,2.75
2023-04-27T01:03:21.139Z,2.75
2023-04-27T01:05:51.022Z,2.71
2023-04-27T01:08:20.331Z,2.63
2023-04-27T01:10:54.450Z,2.59
2023-04-27T01:13:20.827Z,2.55
2023-04-27T01:15:47.219Z,2.61
2023-04-27T01:18:19.803Z,2.49
2023-04-27T01:20:50.129Z,2.43
2023-04-27T01:23:21.929Z,2.45
2023-04-27T01:25:48.426Z,2.47
2023-04-27T01:28:14.786Z,2.47
2023-04-27T01:30:49.708Z,2.44
2023-04-27T01:33:16.386Z,2.44
2023-04-27T01:35:43.091Z,2.42
2023-04-27T01:38:09.739Z,2.35
2023-04-27T01:40:39.306Z,2.27
2023-04-27T01:43:08.496Z,2.26
2023-04-27T01:45:34.919Z,2.30
2023-04-27T01:48:01.540Z,2.26
2023-04-27T01:50:28.002Z,2.19
2023-04-27T01:52:57.570Z,2.24
2023-04-27T01:55:26.765Z,2.28
2023-04-27T01:57:53.083Z,2.24
2023-04-27T02:00:22.696Z,2.17
2023-04-27T02:02:51.182Z,2.14
2023-04-27T02:05:20.202Z,2.14
2023-04-27T02:07:52.414Z,2.06
2023-04-27T02:10:18.844Z,2.00
2023-04-27T02:12:49.282Z,1.99
2023-04-27T02:15:18.469Z,1.93
2023-04-27T02:17:45.577Z,1.96
2023-04-27T02:20:22.417Z,1.96
2023-04-27T02:22:50.146Z,1.99
2023-04-27T02:25:16.951Z,2.02
2023-04-27T02:27:43.565Z,2.00
2023-04-27T02:32:59.599Z,1.92
2023-04-27T02:35:29.041Z,1.88
2023-04-27T02:37:55.474Z,1.92
2023-04-27T02:40:31.344Z,1.92
2023-04-27T02:42:57.702Z,1.92
2023-04-27T02:45:29.839Z,1.88
2023-04-27T02:48:00.398Z,1.87
2023-04-27T02:50:40.089Z,1.84
2023-04-27T02:53:06.999Z,1.81
2023-04-27T02:55:34.322Z,1.76
2023-04-27T02:58:00.881Z,1.79
2023-04-27T03:00:27.374Z,1.72
2023-04-27T03:02:58.226Z,1.65
2023-04-27T03:05:29.002Z,1.68
2023-04-27T03:07:56.018Z,1.67
2023-04-27T03:10:28.784Z,1.61
2023-04-27T03:12:56.029Z,1.57
2023-04-27T03:15:31.234Z,1.55
2023-04-27T03:17:57.666Z,1.46
2023-04-27T03:20:29.503Z,1.44
2023-04-27T03:22:59.654Z,1.38
2023-04-27T03:25:29.484Z,1.34
2023-04-27T03:27:58.624Z,1.34
2023-04-27T03:30:25.022Z,1.33
2023-04-27T03:32:51.462Z,1.37
2023-04-27T03:35:17.953Z,1.37
2023-04-27T03:37:45.957Z,1.42
2023-04-27T03:40:16.443Z,1.40
2023-04-27T03:42:45.429Z,1.39
2023-04-27T03:45:12.184Z,1.30
2023-04-27T03:47:44.773Z,1.18
2023-04-27T03:50:11.345Z,1.12
2023-04-27T03:52:37.725Z,1.11
2023-04-27T03:55:09.350Z,1.13
2023-04-27T03:57:35.945Z,1.17
2023-04-27T04:00:02.299Z,1.15
2023-04-27T04:02:31.933Z,1.18
2023-04-27T04:05:01.545Z,1.18
2023-04-27T04:07:28.968Z,1.18
2023-04-27T04:10:05.532Z,1.15
2023-04-27T04:12:32.344Z,1.20
2023-04-27T04:14:59.140Z,1.25
2023-04-27T04:17:28.344Z,1.27
2023-04-27T04:19:57.339Z,1.25
2023-04-27T04:22:24.905Z,1.32
2023-04-27T04:24:51.396Z,1.38
2023-04-27T04:27:17.846Z,1.44
2023-04-27T04:29:48.153Z,1.52
2023-04-27T04:32:17.757Z,1.59
2023-04-27T04:34:51.687Z,1.67
2023-04-27T04:37:20.721Z,1.67
2023-04-27T04:39:50.325Z,1.74
2023-04-27T04:42:19.294Z,1.77
2023-04-27T04:44:45.736Z,1.81
2023-04-27T04:47:16.335Z,1.83
2023-04-27T04:49:45.626Z,1.97
2023-04-27T04:52:12.004Z,2.09
2023-04-27T04:54:42.347Z,2.35
2023-04-27T04:57:11.671Z,2.50
2023-04-27T04:59:44.504Z,2.63
2023-04-27T05:02:13.789Z,2.81
2023-04-27T05:04:42.520Z,2.98
2023-04-27T05:07:16.087Z,3.41
2023-04-27T05:09:48.882Z,3.87
2023-04-27T05:12:18.427Z,4.69
2023-04-27T05:14:44.824Z,6.02
2023-04-27T05:17:11.690Z,7.44
2023-04-27T05:19:45.375Z,8.53
2023-04-27T05:22:14.796Z,9.46
2023-04-27T05:24:48.353Z,10.24
2023-04-27T05:32:43.921Z,11.43
2023-04-27T05:35:13.451Z,11.62
2023-04-27T05:40:29.354Z,12.21
2023-04-27T05:42:55.782Z,13.08
2023-04-27T05:45:22.503Z,13.58
2023-04-27T05:47:52.982Z,14.10
2023-04-27T05:50:19.480Z,13.53
2023-04-27T05:52:46.298Z,13.26
2023-04-27T05:55:21.097Z,13.90
2023-04-27T05:57:54.473Z,14.60
2023-04-27T06:00:34.262Z,14.43
2023-04-27T06:03:00.996Z,14.12
2023-04-27T06:05:30.695Z,14.61
2023-04-27T06:10:46.064Z,13.97
2023-04-27T06:13:12.445Z,13.28
2023-04-27T06:15:38.876Z,11.40
2023-04-27T06:18:10.001Z,10.24
2023-04-27T06:20:39.528Z,9.37
2023-04-27T06:23:10.566Z,8.91
2023-04-27T06:25:40.539Z,8.55
2023-04-27T06:28:06.907Z,8.27
2023-04-27T06:30:37.488Z,7.89
2023-04-27T06:33:04.677Z,7.88
2023-04-27T06:35:31.531Z,7.94
2023-04-27T06:38:01.384Z,7.91
2023-04-27T06:40:30.537Z,7.97
2023-04-27T06:42:59.665Z,7.87
2023-04-27T06:45:26.111Z,7.85
2023-04-27T06:47:52.571Z,7.76
2023-04-27T06:50:19.099Z,7.78
2023-04-27T06:52:48.746Z,7.77
2023-04-27T06:55:18.473Z,7.93
2023-04-27T06:57:45.108Z,8.14
2023-04-27T07:00:18.157Z,8.24
2023-04-27T07:02:44.766Z,8.24
2023-04-27T07:05:11.228Z,8.26
2023-04-27T07:07:38.363Z,8.27
2023-04-27T07:10:08.254Z,8.31
2023-04-27T07:12:40.699Z,8.40
2023-04-27T07:15:10.696Z,8.46
2023-04-27T07:17:44.544Z,8.58
2023-04-27T07:20:11.328Z,8.80
2023-04-27T07:22:37.795Z,8.91
2023-04-27T07:25:08.849Z,8.98
2023-04-27T07:27:35.984Z,8.96
2023-04-27T07:30:03.097Z,9.08
2023-04-27T07:32:41.306Z,9.21
2023-04-27T07:35:12.088Z,9.25
2023-04-27T07:37:41.578Z,9.30
2023-04-27T07:40:16.660Z,9.43
2023-04-27T07:42:46.453Z,9.47
2023-04-27T07:45:12.983Z,9.69
2023-04-27T07:47:47.418Z,9.62
2023-04-27T07:50:31.399Z,9.56
2023-04-27T07:53:01.698Z,9.60
2023-04-27T07:55:32.634Z,9.66
2023-04-27T07:58:01.549Z,9.95
2023-04-27T08:00:34.939Z,9.97
2023-04-27T08:03:02.219Z,9.96
2023-04-27T08:07:58.569Z,10.22
2023-04-27T08:10:25.203Z,10.36
2023-04-27T08:12:54.659Z,10.46
2023-04-27T08:15:24.279Z,10.64
2023-04-27T08:17:50.773Z,10.77
2023-04-27T08:20:20.770Z,10.64
2023-04-27T08:22:47.184Z,10.63
2023-04-27T08:25:13.549Z,10.73
2023-04-27T08:27:44.172Z,10.78
2023-04-27T08:30:13.815Z,10.98
2023-04-27T08:32:48.102Z,11.11
2023-04-27T08:35:14.719Z,10.88
2023-04-27T08:37:41.166Z,10.94
2023-04-27T08:40:11.298Z,11.08
2023-04-27T08:42:53.148Z,11.05
2023-04-27T08:45:20.312Z,10.92
2023-04-27T08:47:46.745Z,11.08
2023-04-27T08:52:59.843Z,11.27
2023-04-27T08:55:26.423Z,11.40
2023-04-27T08:58:01.398Z,11.42
2023-04-27T09:00:47.501Z,11.31
2023-04-27T09:03:25.651Z,11.56
2023-04-27T09:06:03.819Z,11.66
2023-04-27T09:08:53.143Z,11.76
2023-04-27T09:11:54.927Z,11.82
2023-04-27T09:14:23.093Z,11.78
2023-04-27T09:16:59.947Z,12.00
2023-04-27T09:19:33.557Z,12.25
2023-04-27T09:22:14.101Z,12.13
2023-04-27T09:25:01.240Z,12.42
2023-04-27T09:27:27.621Z,12.40
2023-04-27T09:29:58.235Z,12.78
2023-04-27T09:32:27.838Z,12.98
2023-04-27T09:34:54.202Z,13.15
2023-04-27T09:37:24.274Z,12.95
2023-04-27T09:39:53.524Z,13.14
2023-04-27T09:42:24.238Z,13.17
2023-04-27T09:44:54.214Z,13.28
2023-04-27T09:47:20.862Z,13.24
2023-04-27T09:52:33.622Z,12.77
2023-04-27T09:55:01.245Z,13.05
2023-04-27T09:57:40.507Z,12.73
2023-04-27T10:00:32.321Z,12.34
2023-04-27T10:03:36.655Z,12.68
2023-04-27T10:06:17.522Z,13.00
2023-04-27T10:08:48.804Z,12.96
2023-04-27T10:11:23.225Z,12.93
2023-04-27T10:13:54.874Z,13.18
2023-04-27T10:19:17.140Z,12.94
2023-04-27T10:22:04.650Z,13.14
2023-04-27T10:24:42.688Z,13.57
2023-04-27T10:27:20.091Z,13.91
2023-04-27T10:29:54.304Z,13.74
2023-04-27T10:32:25.410Z,13.58
2023-04-27T10:35:07.498Z,13.92
2023-04-27T10:37:44.747Z,13.75
2023-04-27T10:40:21.777Z,13.86
2023-04-27T10:42:51.790Z,14.16
2023-04-27T10:45:31.725Z,14.15
2023-04-27T10:48:03.413Z,14.21
2023-04-27T10:50:33.013Z,14.41
2023-04-27T10:53:04.857Z,14.51
2023-04-27T10:55:35.551Z,14.36
2023-04-27T10:58:02.807Z,14.33
2023-04-27T11:00:31.789Z,14.22
2023-04-27T11:03:19.874Z,13.93
2023-04-27T11:05:57.646Z,14.30
2023-04-27T11:08:25.327Z,14.53
2023-04-27T11:10:54.910Z,14.82
2023-04-27T11:13:25.575Z,15.03
2023-04-27T11:15:56.834Z,15.09
2023-04-27T11:18:30.599Z,15.12
2023-04-27T11:21:15.624Z,14.59
2023-04-27T11:23:46.199Z,14.15
2023-04-27T11:26:23.817Z,14.16
2023-04-27T11:29:27.214Z,14.43
2023-04-27T11:31:56.816Z,14.71
2023-04-27T11:34:30.071Z,14.97
2023-04-27T11:37:18.572Z,14.94
2023-04-27T11:39:45.728Z,14.87
2023-04-27T11:42:35.764Z,14.85
2023-04-27T11:45:06.489Z,15.02
2023-04-27T11:47:37.874Z,14.46
2023-04-27T11:50:08.597Z,14.41
2023-04-27T11:52:42.440Z,14.40
2023-04-27T11:55:23.417Z,14.29
2023-04-27T11:58:01.895Z,14.42
2023-04-27T12:00:31.469Z,14.58
2023-04-27T12:02:58.146Z,14.90
2023-04-27T12:05:33.619Z,14.89
2023-04-27T12:08:00.099Z,15.08
2023-04-27T12:10:31.358Z,14.81
2023-04-27T12:13:00.675Z,15.05
2023-04-27T12:15:30.125Z,15.46
2023-04-27T12:17:56.559Z,15.46
2023-04-27T12:20:23.000Z,15.79
2023-04-27T12:22:49.317Z,15.49
2023-04-27T12:25:19.616Z,15.39
2023-04-27T12:27:49.317Z,15.34
2023-04-27T12:32:59.543Z,14.95
2023-04-27T12:35:26.290Z,14.79
2023-04-27T12:37:52.739Z,14.67
2023-04-27T12:40:19.364Z,15.03
2023-04-27T12:42:48.467Z,15.04
2023-04-27T12:45:17.618Z,15.40
2023-04-27T12:48:01.081Z,15.63
2023-04-27T12:50:34.278Z,16.00
2023-04-27T12:53:03.769Z,16.31
2023-04-27T12:55:34.511Z,16.28
2023-04-27T12:58:04.860Z,15.81
2023-04-27T13:00:34.156Z,16.14
2023-04-27T13:03:07.904Z,16.37
2023-04-27T13:05:34.356Z,16.52
2023-04-27T13:08:05.389Z,16.77
2023-04-27T13:10:31.977Z,16.85
2023-04-27T13:12:59.540Z,16.64
2023-04-27T13:15:28.957Z,16.28
2023-04-27T13:17:59.078Z,16.44
2023-04-27T13:23:14.591Z,16.20
2023-04-27T13:25:44.728Z,16.21
2023-04-27T13:28:13.628Z,16.12
2023-04-27T13:30:42.951Z,16.41
2023-04-27T13:35:53.270Z,16.48
2023-04-27T13:38:22.425Z,16.26
2023-04-27T13:40:48.891Z,16.43
2023-04-27T13:43:15.362Z,16.03
2023-04-27T13:45:42.885Z,15.85
2023-04-27T13:48:16.371Z,15.90
2023-04-27T13:50:48.128Z,15.93
2023-04-27T13:53:17.356Z,15.78
2023-04-27T13:55:44.548Z,15.99
2023-04-27T13:58:13.912Z,15.88
2023-04-27T14:00:40.413Z,15.90
2023-04-27T14:03:16.209Z,16.15
2023-04-27T14:05:48.221Z,16.16
2023-04-27T14:08:19.013Z,16.30
2023-04-27T14:10:49.010Z,16.54
2023-04-27T14:15:58.463Z,16.41
2023-04-27T14:18:32.278Z,16.58
2023-04-27T14:21:00.241Z,16.73
2023-04-27T14:23:36.651Z,17.00
2023-04-27T14:26:10.366Z,17.27
2023-04-27T14:28:36.839Z,17.09
2023-04-27T14:31:03.169Z,16.88
2023-04-27T14:33:51.043Z,16.25
2023-04-27T14:36:21.652Z,16.22
2023-04-27T14:38:48.009Z,16.30
2023-04-27T14:41:17.735Z,16.36
2023-04-27T14:43:48.482Z,16.02
2023-04-27T14:46:21.387Z,15.72
2023-04-27T14:48:48.593Z,15.93
2023-04-27T14:51:15.911Z,16.06
2023-04-27T14:53:51.263Z,16.01
2023-04-27T14:56:17.687Z,15.83
2023-04-27T14:58:44.064Z,15.53
2023-04-27T15:01:11.108Z,15.67
2023-04-27T15:03:41.815Z,15.71
2023-04-27T15:06:11.243Z,15.53
2023-04-27T15:08:40.688Z,15.47
2023-04-27T15:11:07.239Z,15.45
2023-04-27T15:13:36.752Z,15.40
2023-04-27T15:16:04.847Z,15.17
2023-04-27T15:18:39.258Z,15.11
2023-04-27T15:21:08.843Z,15.19
2023-04-27T15:23:39.442Z,15.44
2023-04-27T15:26:09.319Z,15.36
2023-04-27T15:28:36.249Z,15.12
2023-04-27T15:31:05.850Z,15.25
2023-04-27T15:33:35.136Z,15.35
2023-04-27T15:36:02.043Z,15.25
2023-04-27T15:38:31.584Z,14.93
2023-04-27T15:41:01.051Z,14.87
2023-04-27T15:43:29.974Z,14.82
2023-04-27T15:46:03.949Z,15.03
2023-04-27T15:48:30.355Z,14.72
2023-04-27T15:51:09.536Z,14.73
2023-04-27T15:53:48.837Z,14.73
2023-04-27T15:56:21.281Z,14.70
2023-04-27T15:58:47.613Z,14.78
2023-04-27T16:01:13.988Z,14.80
2023-04-27T16:03:40.800Z,14.90
2023-04-27T16:06:07.506Z,14.85
2023-04-27T16:08:33.917Z,14.72
2023-04-27T16:11:00.380Z,14.74
2023-04-27T16:13:31.902Z,14.64
2023-04-27T16:15:58.364Z,14.61
2023-04-27T16:18:24.841Z,14.51
2023-04-27T16:20:51.755Z,14.44
2023-04-27T16:23:20.696Z,14.49
2023-04-27T16:25:47.095Z,14.37
2023-04-27T16:28:15.407Z,14.24
2023-04-27T16:30:41.734Z,14.21
2023-04-27T16:33:08.107Z,14.32
2023-04-27T16:35:34.861Z,14.32
2023-04-27T16:38:01.583Z,14.17
2023-04-27T16:40:30.414Z,14.07
2023-04-27T16:42:56.801Z,14.16
2023-04-27T16:45:29.007Z,14.14
2023-04-27T16:47:59.704Z,13.98
2023-04-27T16:50:26.384Z,14.05
2023-04-27T16:52:54.420Z,13.94
2023-04-27T16:55:21.142Z,13.84
2023-04-27T16:57:47.655Z,13.72
2023-04-27T17:00:18.526Z,13.73
2023-04-27T17:02:45.093Z,13.78
2023-04-27T17:05:12.713Z,13.59
2023-04-27T17:07:42.854Z,13.59
2023-04-27T17:10:09.516Z,13.66
2023-04-27T17:12:39.498Z,13.76
2023-04-27T17:15:12.234Z,13.71
2023-04-27T17:17:38.706Z,13.60
2023-04-27T17:20:09.544Z,13.53
2023-04-27T17:22:36.563Z,13.48
2023-04-27T17:25:03.990Z,13.45
2023-04-27T17:27:33.725Z,13.54
2023-04-27T17:30:00.553Z,13.41
2023-04-27T17:32:26.906Z,13.36
2023-04-27T17:34:57.458Z,13.31
2023-04-27T17:37:26.578Z,13.17
2023-04-27T17:39:54.707Z,12.93
2023-04-27T17:42:26.258Z,12.87
2023-04-27T17:44:52.713Z,12.87
2023-04-27T17:47:25.124Z,12.82
2023-04-27T17:49:51.469Z,12.80
2023-04-27T17:52:17.830Z,12.74
2023-04-27T17:54:52.962Z,12.66
2023-04-27T17:57:19.362Z,12.61
2023-04-27T18:05:14.018Z,12.44
2023-04-27T18:07:43.471Z,12.36
2023-04-27T18:10:17.408Z,12.36
2023-04-27T18:12:46.771Z,12.26
2023-04-27T18:15:17.934Z,12.19
2023-04-27T18:17:48.852Z,12.12
2023-04-27T18:20:15.976Z,12.06
2023-04-27T18:22:44.932Z,12.03
2023-04-27T18:25:13.202Z,12.00
2023-04-27T18:27:39.627Z,11.96
2023-04-27T18:30:09.445Z,11.90
2023-04-27T18:32:36.018Z,11.83
2023-04-27T18:35:02.929Z,11.79
2023-04-27T18:37:31.645Z,11.77
2023-04-27T18:40:01.016Z,11.75
2023-04-27T18:42:27.434Z,11.73
2023-04-27T18:45:00.439Z,11.70
2023-04-27T18:47:28.115Z,11.63
2023-04-27T18:49:59.600Z,11.60
2023-04-27T18:52:28.771Z,11.56
2023-04-27T18:54:55.281Z,11.54
2023-04-27T18:57:44.764Z,11.52
2023-04-27T19:00:14.968Z,11.46
2023-04-27T19:02:47.737Z,11.43
2023-04-27T19:05:19.227Z,11.40
2023-04-27T19:07:50.946Z,11.38
2023-04-27T19:10:17.448Z,11.37
2023-04-27T19:12:43.775Z,11.34
2023-04-27T19:15:13.965Z,11.34
2023-04-27T19:17:43.505Z,11.34
2023-04-27T19:20:18.642Z,11.31
2023-04-27T19:22:45.094Z,11.32
2023-04-27T19:25:11.638Z,11.30
2023-04-27T19:27:42.059Z,11.25
2023-04-27T19:30:11.455Z,11.21
2023-04-27T19:32:43.702Z,11.19
2023-04-27T19:35:13.746Z,11.17
2023-04-27T19:37:42.723Z,11.15
2023-04-27T19:40:16.324Z,11.14
2023-04-27T19:42:42.760Z,11.11
2023-04-27T19:45:13.365Z,11.12
2023-04-27T19:47:43.692Z,11.13
2023-04-27T19:50:21.117Z,11.10
2023-04-27T19:52:47.461Z,11.08
2023-04-27T19:58:08.071Z,11.06
2023-04-27T20:00:35.745Z,11.05
2023-04-27T20:03:08.763Z,11.02
2023-04-27T20:05:41.378Z,11.00
2023-04-27T20:08:11.476Z,10.96
2023-04-27T20:10:37.840Z,10.93
2023-04-27T20:13:07.464Z,10.93
2023-04-27T20:15:37.675Z,10.91
2023-04-27T20:18:07.110Z,10.87
2023-04-27T20:20:36.290Z,10.84
2023-04-27T20:23:02.733Z,10.81
2023-04-27T20:25:50.221Z,10.80
2023-04-27T20:28:22.695Z,10.78
2023-04-27T20:30:49.126Z,10.73
2023-04-27T20:33:15.671Z,10.71
2023-04-27T20:35:45.013Z,10.70
2023-04-27T20:38:12.315Z,10.69
2023-04-27T20:40:44.326Z,10.69
2023-04-27T20:43:10.805Z,10.64
2023-04-27T20:45:37.200Z,10.62
2023-04-27T20:48:09.297Z,10.59
2023-04-27T20:50:39.602Z,10.57
2023-04-27T20:53:09.269Z,10.52
2023-04-27T20:55:38.557Z,10.53
2023-04-27T20:58:04.975Z,10.51
2023-04-27T21:00:36.658Z,10.49
2023-04-27T21:03:07.225Z,10.45
2023-04-27T21:05:44.529Z,10.43
2023-04-27T21:08:11.318Z,10.39
2023-04-27T21:10:39.277Z,10.34
2023-04-27T21:13:08.864Z,10.30
2023-04-27T21:15:35.681Z,10.26
2023-04-27T21:18:22.466Z,10.24
2023-04-27T21:20:55.963Z,10.22
2023-04-27T21:23:22.917Z,10.19
2023-04-27T21:25:50.384Z,10.17
2023-04-27T21:28:16.716Z,10.13
2023-04-27T21:30:43.101Z,10.10
2023-04-27T21:33:12.627Z,10.09
2023-04-27T21:35:42.203Z,10.07
2023-04-27T21:38:11.509Z,10.05
2023-04-27T21:40:38.357Z,10.06
2023-04-27T21:43:06.169Z,10.02
2023-04-27T21:45:32.872Z,9.98
2023-04-27T21:48:00.027Z,9.98
2023-04-27T21:50:29.660Z,9.97
2023-04-27T21:52:56.298Z,9.95
2023-04-27T21:55:32.619Z,9.94
2023-04-27T21:57:59.788Z,9.91
2023-04-27T22:00:29.660Z,9.90
2023-04-27T22:02:56.753Z,9.88
2023-04-27T22:05:25.979Z,9.86
2023-04-27T22:07:58.796Z,9.87
2023-04-27T22:10:25.520Z,9.86
2023-04-27T22:13:17.594Z,9.84
2023-04-27T22:15:48.280Z,9.83
2023-04-27T22:18:18.905Z,9.82
2023-04-27T22:20:48.461Z,9.84
2023-04-27T22:23:23.552Z,9.81
2023-04-27T22:25:50.197Z,9.84
2023-04-27T22:28:24.785Z,9.83
2023-04-27T22:30:52.611Z,9.84
2023-04-27T22:33:19.269Z,9.83
2023-04-27T22:35:55.088Z,9.80
2023-04-27T22:38:21.849Z,9.80
2023-04-27T22:40:54.033Z,9.80
2023-04-27T22:43:24.106Z,9.80
2023-04-27T22:45:55.607Z,9.79
2023-04-27T22:48:22.048Z,9.77
2023-04-27T22:50:48.430Z,9.75
2023-04-27T22:53:18.955Z,9.79
2023-04-27T22:55:48.420Z,9.74
2023-04-27T22:58:22.248Z,9.72
2023-04-27T23:00:51.387Z,9.70
2023-04-27T23:03:25.187Z,9.69
2023-04-27T23:05:54.822Z,9.68
2023-04-27T23:08:27.453Z,9.66
2023-04-27T23:10:56.831Z,9.65
2023-04-27T23:13:30.844Z,9.64
2023-04-27T23:16:00.060Z,9.64
2023-04-27T23:18:33.808Z,9.61
2023-04-27T23:21:03.428Z,9.61
2023-04-27T23:23:29.969Z,9.58
2023-04-27T23:25:57.687Z,9.55
2023-04-27T23:28:27.019Z,9.54
2023-04-27T23:31:02.065Z,9.55
2023-04-27T23:33:29.014Z,9.55
2023-04-27T23:35:56.235Z,9.50
2023-04-27T23:38:26.322Z,9.50
2023-04-27T23:40:52.734Z,9.48
2023-04-27T23:43:19.217Z,9.46
2023-04-27T23:45:55.801Z,9.42
2023-04-27T23:48:22.177Z,9.39
2023-04-27T23:50:49.154Z,9.37
2023-04-27T23:53:22.856Z,9.37
2023-04-27T23:55:52.304Z,9.35
2023-04-27T23:58:22.794Z,9.33
